Southern Tiare — E5U2082 — position and weather

sailwx.info

Track history (hours):
 
Tides and Currents Weather Stations Pressure Air Temp Water Temp Dewpoint Dewpoint Depression Visibility Wind Speed Wind Dir Waves Ship Positions

Southern Tiare

Last reported at 2015-Apr-21 11:33 UTC. Time now 2015-May-06 05:24 UTC.
Position S 36°19' E 174°57'.
Warning: this ship's position is 14 days out of date.

Length 67 m; draft 3.3 m.

Type: Cargo ship. MMSI: 518132000.

Date/timePositionNaut miles runAvg speedWind from/ knotsBaromVisibWave heightAir tempDewpointWater temp
2015-Apr-21 11:33S 36°19' E 174°57'1110.8
2015-Apr-21 10:33S 36°30' E 174°57'10 9.9
2015-Apr-21 09:34S 36°40' E 174°55'9 9.4
2015-Apr-21 08:33S 36°48' E 174°49'3 0.8
2015-Apr-21 04:16S 36°51' E 174°47'0 0.0
2015-Apr-21 03:28S 36°51' E 174°47'0 0.0
2015-Apr-21 01:28S 36°51' E 174°47'0 0.0
2015-Apr-21 00:33S 36°51' E 174°47'6 5.6
2015-Apr-20 23:33S 36°45' E 174°50'1010.2
2015-Apr-20 22:33S 36°37' E 174°57'  
Track history (hours):
 
Tides and Currents Weather Stations Pressure Air Temp Water Temp Dewpoint Dewpoint Depression Visibility Wind Speed Wind Dir Waves Ship Positions

Southern Tiare

Last reported at 2015-Apr-21 11:33 UTC. Time now 2015-May-06 05:24 UTC.
Position S 36°19' E 174°57'.
Warning: this ship's position is 14 days out of date.

Length 67 m; draft 3.3 m.

Type: Cargo ship. MMSI: 518132000.

Date/timePositionNaut miles runAvg speedWind from/ knotsBaromVisibWave heightAir tempDewpointWater temp
2015-Apr-21 11:33S 36°19' E 174°57'1110.8
2015-Apr-21 10:33S 36°30' E 174°57'10 9.9
2015-Apr-21 09:34S 36°40' E 174°55'9 9.4
2015-Apr-21 08:33S 36°48' E 174°49'3 0.8
2015-Apr-21 04:16S 36°51' E 174°47'0 0.0
2015-Apr-21 03:28S 36°51' E 174°47'0 0.0
2015-Apr-21 01:28S 36°51' E 174°47'0 0.0
2015-Apr-21 00:33S 36°51' E 174°47'6 5.6
2015-Apr-20 23:33S 36°45' E 174°50'1010.2
2015-Apr-20 22:33S 36°37' E 174°57'  

Dump ship's entire track history